Time;durP1;ratioP1;P1;durP2;ratioP2;P2;SDS_P1;SDS_P2;PMS_P1;PMS_P2;Temp;Humidity;BMP_temperature;BMP_pressure;BME280_temperature;BME280_humidity;BME280_pressure;Samples;Min_cycle;Max_cycle;Signal;HPM_P1;HPM_P2
2023/04/12 00:01:36;;;;;;;;;;;;;;;6.16;46.41;101045.69;10494471;28;19920;-86
2023/04/12 00:06:39;;;;;;;;;;;;;;;5.97;47.24;101055.09;10542003;28;19920;-85
2023/04/12 00:11:42;;;;;;;;;;;;;;;5.82;47.42;101063.75;10526669;28;19930;-86
2023/04/12 00:16:45;;;;;;;;;;;;;;;5.69;48.37;101053.91;10536704;28;19966;-84
2023/04/12 00:21:48;;;;;;;;;;;;;;;5.62;49.26;101063.28;10568707;28;19927;-83
2023/04/12 00:26:50;;;;;;;;;;;;;;;5.52;49.41;101061.16;10508147;28;20364;-85
2023/04/12 00:31:52;;;;;;;;;;;;;;;5.48;50.17;101051.81;10506301;28;20023;-87
2023/04/12 00:36:54;;;;;;;;;;;;;;;5.41;49.91;101049.22;10501568;28;20010;-83
2023/04/12 00:41:56;;;;;;;;;;;;;;;5.52;50.10;101063.06;10533027;28;19924;-86
2023/04/12 00:46:58;;;;;;;;;;;;;;;5.51;50.10;101078.56;10521528;28;20279;-85
2023/04/12 00:52:03;;;;;;;;;;;;;;;5.64;50.15;101074.78;10529521;28;20261;-84
2023/04/12 00:57:05;;;;;;;;;;;;;;;5.79;49.87;101068.84;10519800;28;19930;-86
2023/04/12 01:02:07;;;;;;;;;;;;;;;5.90;49.70;101066.13;10464209;28;19920;-86
2023/04/12 01:07:33;;;;;;;;;;;;;;;5.93;49.04;101048.47;10507642;28;19928;-85
2023/04/12 01:12:37;;;;;;;;;;;;;;;5.87;51.35;101049.41;10469928;28;20031;-85
2023/04/12 01:17:58;;;;;;;;;;;;;;;5.83;50.07;101037.34;10468584;28;19915;-86
2023/04/12 01:23:04;;;;;;;;;;;;;;;5.77;49.71;101038.31;10506323;28;19916;-85
2023/04/12 01:28:08;;;;;;;;;;;;;;;5.74;48.88;101045.06;10525738;28;19932;-85
2023/04/12 01:33:10;;;;;;;;;;;;;;;5.78;49.00;101048.94;10506762;28;19920;-86
2023/04/12 01:38:12;;;;;;;;;;;;;;;5.87;48.40;101060.28;10477177;28;20359;-85
2023/04/12 01:43:15;;;;;;;;;;;;;;;5.97;48.94;101052.38;10492748;28;19920;-85
2023/04/12 01:48:17;;;;;;;;;;;;;;;5.99;48.41;101052.97;10511490;28;19924;-87
2023/04/12 01:53:22;;;;;;;;;;;;;;;5.95;48.08;101058.06;10492613;28;20425;-84
2023/04/12 01:58:24;;;;;;;;;;;;;;;5.88;47.98;101048.31;10551137;28;19916;-84
2023/04/12 02:03:29;;;;;;;;;;;;;;;5.81;47.68;101047.63;10507030;28;19924;-83
2023/04/12 02:08:33;;;;;;;;;;;;;;;5.73;48.15;101052.41;10512541;28;19920;-85
2023/04/12 02:13:35;;;;;;;;;;;;;;;5.54;47.75;101064.47;10566564;28;19922;-86
2023/04/12 02:18:37;;;;;;;;;;;;;;;5.37;48.22;101056.19;10527846;28;19924;-82
2023/04/12 02:23:42;;;;;;;;;;;;;;;5.31;48.64;101045.44;10532021;28;19920;-82
2023/04/12 02:28:47;;;;;;;;;;;;;;;5.28;48.20;101043.19;10536567;28;20390;-85
2023/04/12 02:33:53;;;;;;;;;;;;;;;5.30;48.69;101043.78;10487190;28;19936;-86
2023/04/12 02:39:12;;;;;;;;;;;;;;;5.23;48.44;101029.47;10474391;28;20390;-84
2023/04/12 02:44:15;;;;;;;;;;;;;;;5.24;48.07;101039.28;10509862;28;20295;-85
2023/04/12 02:49:23;;;;;;;;;;;;;;;5.27;48.23;101025.22;10483384;28;19924;-85
2023/04/12 02:54:25;;;;;;;;;;;;;;;5.34;48.01;101042.22;10482832;28;19916;-85
2023/04/12 02:59:30;;;;;;;;;;;;;;;5.32;47.74;101036.19;10487668;28;19927;-85
2023/04/12 03:04:49;;;;;;;;;;;;;;;5.37;47.54;101037.13;10497001;28;19927;-86
2023/04/12 03:09:56;;;;;;;;;;;;;;;5.38;47.75;101037.97;10502075;28;19920;-84
2023/04/12 03:15:00;;;;;;;;;;;;;;;5.38;47.52;101037.97;10488588;28;19916;-85
2023/04/12 03:20:08;;;;;;;;;;;;;;;5.40;47.03;101042.13;10475605;28;20379;-85
2023/04/12 03:25:13;;;;;;;;;;;;;;;5.39;47.36;101042.38;10484643;28;20307;-85
2023/04/12 03:30:24;;;;;;;;;;;;;;;5.40;46.68;101047.56;10511156;28;19939;-85
2023/04/12 03:35:30;;;;;;;;;;;;;;;5.40;46.72;101055.75;10488461;28;19916;-84
2023/04/12 03:40:33;;;;;;;;;;;;;;;5.38;47.04;101040.69;10498996;28;19920;-85
2023/04/12 03:45:36;;;;;;;;;;;;;;;5.38;46.94;101046.13;10475843;28;20380;-85
2023/04/12 03:50:47;;;;;;;;;;;;;;;5.48;46.41;101056.44;10512275;28;19916;-84
2023/04/12 03:55:56;;;;;;;;;;;;;;;5.54;46.35;101050.84;10537266;28;20006;-83
2023/04/12 04:01:05;;;;;;;;;;;;;;;5.61;46.39;101053.47;10522184;28;19920;-85
2023/04/12 04:06:09;;;;;;;;;;;;;;;5.64;47.19;101058.44;10491995;28;19920;-84
2023/04/12 04:11:12;;;;;;;;;;;;;;;5.36;48.46;101054.53;10553941;28;20303;-85
2023/04/12 04:16:18;;;;;;;;;;;;;;;5.10;49.81;101058.53;10547700;28;19920;-86
2023/04/12 04:21:21;;;;;;;;;;;;;;;5.19;49.60;101059.00;10551154;28;19934;-85
2023/04/12 04:26:32;;;;;;;;;;;;;;;5.28;49.70;101048.63;10495682;28;19920;-85
2023/04/12 04:31:41;;;;;;;;;;;;;;;5.44;49.44;101056.09;10498184;28;19916;-86
2023/04/12 04:36:44;;;;;;;;;;;;;;;5.86;48.98;101059.47;10481731;28;19927;-84
2023/04/12 04:41:53;;;;;;;;;;;;;;;6.12;48.66;101071.75;10475715;28;19927;-85
2023/04/12 04:47:11;;;;;;;;;;;;;;;6.42;47.44;101057.06;10510917;28;19927;-87
2023/04/12 04:52:14;;;;;;;;;;;;;;;6.69;47.37;101049.13;10516933;28;19926;-84
2023/04/12 04:57:17;;;;;;;;;;;;;;;7.26;46.10;101042.44;10521521;28;20338;-86
2023/04/12 05:02:20;;;;;;;;;;;;;;;7.78;45.38;101054.94;10487847;28;20379;-86
2023/04/12 05:07:24;;;;;;;;;;;;;;;8.73;43.45;101056.38;10484918;28;20303;-86
2023/04/12 05:12:27;;;;;;;;;;;;;;;9.24;42.11;101059.56;10495122;28;19920;-85
2023/04/12 05:17:33;;;;;;;;;;;;;;;9.72;40.95;101046.72;10517499;28;20375;-88
2023/04/12 05:22:35;;;;;;;;;;;;;;;10.17;40.19;101057.09;10553276;28;19920;-86
2023/04/12 05:27:37;;;;;;;;;;;;;;;10.97;39.31;101041.13;10486356;28;20308;-85
2023/04/12 05:32:41;;;;;;;;;;;;;;;10.81;39.52;101046.59;10511923;28;19927;-85
2023/04/12 05:37:44;;;;;;;;;;;;;;;11.53;38.21;101050.16;10523250;28;19916;-86
2023/04/12 05:42:48;;;;;;;;;;;;;;;11.55;37.12;101042.47;10546922;28;19927;-85
2023/04/12 05:47:50;;;;;;;;;;;;;;;11.85;36.72;101047.09;10500380;28;19920;-85
2023/04/12 05:52:53;;;;;;;;;;;;;;;12.72;36.16;101039.25;10488892;28;19926;-86
2023/04/12 05:58:00;;;;;;;;;;;;;;;12.34;36.33;101038.09;10500864;28;19916;-87
2023/04/12 06:03:05;;;;;;;;;;;;;;;13.10;35.28;101040.31;10500429;28;19917;-84
2023/04/12 06:08:07;;;;;;;;;;;;;;;13.13;34.93;101055.47;10508449;28;19921;-86
2023/04/12 06:13:09;;;;;;;;;;;;;;;13.58;34.50;101052.31;10490407;28;19995;-85
2023/04/12 06:18:16;;;;;;;;;;;;;;;13.39;34.71;101059.69;10488808;28;20395;-87
2023/04/12 06:23:22;;;;;;;;;;;;;;;13.59;34.85;101050.38;10488733;28;19955;-85
2023/04/12 06:28:26;;;;;;;;;;;;;;;13.85;34.12;101045.41;10511271;28;19920;-86
2023/04/12 06:33:29;;;;;;;;;;;;;;;14.12;33.93;101050.34;10497379;28;19920;-85
2023/04/12 06:38:31;;;;;;;;;;;;;;;14.52;33.33;101048.19;10500367;28;19927;-87
2023/04/12 06:43:33;;;;;;;;;;;;;;;14.98;33.34;101051.09;10506532;28;19982;-85
2023/04/12 06:48:35;;;;;;;;;;;;;;;15.28;32.66;101049.78;10529779;28;19920;-86
2023/04/12 06:53:38;;;;;;;;;;;;;;;15.26;32.46;101061.13;10514927;28;20003;-92
2023/04/12 06:58:40;;;;;;;;;;;;;;;15.73;32.24;101056.47;10478432;28;19920;-90
2023/04/12 07:03:42;;;;;;;;;;;;;;;15.82;31.80;101057.41;10512571;28;19927;-85
2023/04/12 07:08:44;;;;;;;;;;;;;;;15.94;31.59;101066.00;10536009;28;20358;-80
2023/04/12 07:13:46;;;;;;;;;;;;;;;15.87;32.07;101060.06;10528170;28;19923;-80
2023/04/12 07:18:48;;;;;;;;;;;;;;;16.14;32.00;101059.28;10516830;28;19947;-79
2023/04/12 07:23:50;;;;;;;;;;;;;;;16.82;31.47;101061.09;10524369;28;20797;-80
2023/04/12 07:28:53;;;;;;;;;;;;;;;17.15;30.56;101067.25;10506728;28;20435;-81
2023/04/12 07:33:55;;;;;;;;;;;;;;;17.81;29.73;101064.75;10518610;28;19928;-80
2023/04/12 07:38:57;;;;;;;;;;;;;;;17.29;30.27;101071.91;10495433;28;19921;-80
2023/04/12 07:44:00;;;;;;;;;;;;;;;17.72;30.17;101067.50;10512158;28;19943;-79
2023/04/12 07:49:02;;;;;;;;;;;;;;;17.87;29.61;101076.53;10545478;28;20016;-80
2023/04/12 07:54:04;;;;;;;;;;;;;;;18.02;29.61;101073.31;10551774;28;19919;-79
2023/04/12 07:59:06;;;;;;;;;;;;;;;18.28;29.20;101074.25;10534210;28;19920;-80
2023/04/12 08:04:08;;;;;;;;;;;;;;;18.93;29.05;101070.63;10525326;28;19931;-78
2023/04/12 08:09:10;;;;;;;;;;;;;;;19.19;28.65;101078.13;10538701;28;19928;-79
2023/04/12 08:14:12;;;;;;;;;;;;;;;19.28;28.43;101078.97;10524035;28;19923;-77
2023/04/12 08:19:14;;;;;;;;;;;;;;;18.88;29.11;101073.56;10542599;28;19927;-79
2023/04/12 08:24:17;;;;;;;;;;;;;;;19.03;29.00;101071.44;10506408;28;19917;-78
2023/04/12 08:29:19;;;;;;;;;;;;;;;18.88;29.07;101059.66;10526677;28;19946;-79
2023/04/12 08:34:25;;;;;;;;;;;;;;;18.12;30.26;101075.81;10539410;28;19936;-78
2023/04/12 08:39:27;;;;;;;;;;;;;;;18.00;29.78;101081.97;10503706;28;19962;-78
2023/04/12 08:44:35;;;;;;;;;;;;;;;18.43;29.77;101074.94;10521235;28;19920;-77
2023/04/12 08:49:38;;;;;;;;;;;;;;;19.01;29.07;101070.94;10522777;28;20351;-77
2023/04/12 08:54:40;;;;;;;;;;;;;;;18.30;30.18;101071.13;10541676;28;19919;-77
2023/04/12 08:59:42;;;;;;;;;;;;;;;18.56;30.16;101076.75;10564955;28;19931;-78
2023/04/12 09:04:51;;;;;;;;;;;;;;;18.58;29.81;101069.75;10475464;28;20799;-78
2023/04/12 09:09:54;;;;;;;;;;;;;;;17.68;30.74;101071.19;10487695;28;19920;-78
2023/04/12 09:15:16;;;;;;;;;;;;;;;17.30;31.60;101059.69;10542310;28;19920;-78
2023/04/12 09:20:18;;;;;;;;;;;;;;;16.62;32.88;101066.25;10530034;28;20378;-78
2023/04/12 09:25:36;;;;;;;;;;;;;;;15.89;33.94;101065.28;10538802;28;19920;-77
2023/04/12 09:30:41;;;;;;;;;;;;;;;15.80;34.73;101056.06;10535353;28;19920;-76
2023/04/12 09:35:43;;;;;;;;;;;;;;;15.08;35.73;101064.75;10522605;28;20395;-79
2023/04/12 09:40:45;;;;;;;;;;;;;;;14.76;35.39;101060.84;10528333;28;19920;-78
2023/04/12 09:45:48;;;;;;;;;;;;;;;14.85;36.26;101054.63;10571992;28;20326;-80
2023/04/12 09:50:57;;;;;;;;;;;;;;;14.68;36.72;101064.25;10538215;28;19935;-78
2023/04/12 09:55:59;;;;;;;;;;;;;;;14.52;37.18;101068.34;10533049;28;19920;-78
2023/04/12 10:01:02;;;;;;;;;;;;;;;14.62;37.62;101067.41;10536954;28;19943;-77
2023/04/12 10:06:05;;;;;;;;;;;;;;;14.57;37.40;101059.97;10524614;28;19920;-78
2023/04/12 10:11:08;;;;;;;;;;;;;;;14.58;37.59;101063.56;10526265;28;19924;-78
2023/04/12 10:16:10;;;;;;;;;;;;;;;14.69;37.44;101059.56;10497240;28;19942;-78
2023/04/12 10:21:12;;;;;;;;;;;;;;;14.69;38.32;101065.91;10514071;28;19927;-78
2023/04/12 10:26:14;;;;;;;;;;;;;;;15.00;36.85;101068.22;10547073;28;20306;-79
2023/04/12 10:31:26;;;;;;;;;;;;;;;14.67;37.78;101064.56;10488619;28;19928;-77
2023/04/12 10:36:47;;;;;;;;;;;;;;;14.61;37.70;101063.81;10533840;28;19916;-78
2023/04/12 10:42:07;;;;;;;;;;;;;;;14.69;37.88;101054.84;10532668;28;20307;-78
2023/04/12 10:47:10;;;;;;;;;;;;;;;14.55;37.63;101053.94;10488355;28;19932;-78
2023/04/12 10:52:12;;;;;;;;;;;;;;;14.29;37.40;101058.97;10521800;28;19920;-79
2023/04/12 10:57:33;;;;;;;;;;;;;;;14.18;37.50;101049.16;10533176;28;19920;-78
2023/04/12 11:02:35;;;;;;;;;;;;;;;14.09;37.85;101053.72;10526704;28;19920;-78
2023/04/12 11:07:41;;;;;;;;;;;;;;;14.04;37.89;101060.09;10508860;28;19920;-79
2023/04/12 11:13:07;;;;;;;;;;;;;;;13.93;37.87;101064.09;10507036;28;19926;-79
2023/04/12 11:18:09;;;;;;;;;;;;;;;13.78;38.64;101067.03;10520757;28;20315;-79
2023/04/12 11:23:11;;;;;;;;;;;;;;;13.81;38.40;101061.72;10522185;28;19920;-78
2023/04/12 11:28:16;;;;;;;;;;;;;;;13.56;38.84;101060.06;10540918;28;19927;-79
2023/04/12 11:33:33;;;;;;;;;;;;;;;13.51;39.36;101068.38;10532837;28;19927;-78
2023/04/12 11:38:36;;;;;;;;;;;;;;;13.54;39.18;101062.31;10571232;28;19950;-78
2023/04/12 11:43:38;;;;;;;;;;;;;;;13.48;38.52;101066.19;10537924;28;19920;-77
2023/04/12 11:48:43;;;;;;;;;;;;;;;13.45;38.40;101053.00;10558024;28;19980;-77
2023/04/12 11:53:45;;;;;;;;;;;;;;;13.39;38.40;101051.41;10572575;28;19926;-78
2023/04/12 11:58:47;;;;;;;;;;;;;;;13.24;38.40;101051.56;10515936;28;20019;-78
2023/04/12 12:03:49;;;;;;;;;;;;;;;13.35;38.71;101055.84;10492324;28;19930;-80
2023/04/12 12:08:51;;;;;;;;;;;;;;;13.32;38.45;101048.16;10524179;28;19942;-78
2023/04/12 12:13:54;;;;;;;;;;;;;;;13.30;38.61;101055.91;10508036;28;19928;-79
2023/04/12 12:18:56;;;;;;;;;;;;;;;13.21;39.13;101046.63;10544077;28;19927;-81
2023/04/12 12:23:58;;;;;;;;;;;;;;;13.09;39.34;101048.88;10551593;28;20314;-78
2023/04/12 12:29:00;;;;;;;;;;;;;;;13.02;39.21;101048.41;10483537;28;19921;-79
2023/04/12 12:34:02;;;;;;;;;;;;;;;12.95;38.17;101052.28;10516654;28;20015;-81
2023/04/12 12:39:09;;;;;;;;;;;;;;;12.87;37.70;101055.66;10511411;28;19926;-81
2023/04/12 12:44:11;;;;;;;;;;;;;;;12.84;37.67;101060.91;10502561;28;19934;-80
2023/04/12 12:49:15;;;;;;;;;;;;;;;12.80;36.89;101051.56;10499416;28;20460;-80
2023/04/12 12:54:17;;;;;;;;;;;;;;;12.74;37.54;101061.81;10506518;28;20371;-83
2023/04/12 12:59:19;;;;;;;;;;;;;;;12.78;37.27;101043.59;10489133;28;19923;-81
2023/04/12 13:04:21;;;;;;;;;;;;;;;12.74;36.84;101060.97;10543415;28;19923;-82
2023/04/12 13:09:23;;;;;;;;;;;;;;;12.70;36.83;101037.88;10527823;28;19999;-81
2023/04/12 13:14:26;;;;;;;;;;;;;;;12.53;37.25;101052.03;10524806;28;19920;-79
2023/04/12 13:19:28;;;;;;;;;;;;;;;12.41;37.70;101048.78;10518679;28;19998;-79
2023/04/12 13:24:31;;;;;;;;;;;;;;;12.41;37.10;101043.28;10524681;28;19920;-78
2023/04/12 13:29:34;;;;;;;;;;;;;;;12.25;37.36;101051.59;10519353;28;19920;-79
2023/04/12 13:34:36;;;;;;;;;;;;;;;12.16;37.28;101050.56;10517972;28;20406;-83
2023/04/12 13:39:39;;;;;;;;;;;;;;;12.14;37.11;101039.00;10476904;28;19920;-79
2023/04/12 13:44:41;;;;;;;;;;;;;;;12.16;36.76;101056.06;10502807;28;19916;-79
2023/04/12 13:49:43;;;;;;;;;;;;;;;12.11;36.84;101055.25;10486912;28;19924;-78
2023/04/12 13:54:45;;;;;;;;;;;;;;;11.98;36.83;101057.50;10533688;28;19920;-78
2023/04/12 13:59:51;;;;;;;;;;;;;;;11.93;36.81;101057.50;10511405;28;20003;-79
2023/04/12 14:04:58;;;;;;;;;;;;;;;11.92;36.63;101057.78;10472632;28;20422;-79
2023/04/12 14:10:08;;;;;;;;;;;;;;;11.86;37.30;101051.50;10463443;28;20015;-82
2023/04/12 14:15:13;;;;;;;;;;;;;;;11.82;37.08;101058.66;10466609;28;19948;-79
2023/04/12 14:20:48;;;;;;;;;;;;;;;11.82;36.97;101050.41;10488210;28;19959;-79
2023/04/12 14:26:14;;;;;;;;;;;;;;;;;;;;;
2023/04/12 14:31:28;;;;;;;;;;;;;;;11.74;37.60;101060.00;10514914;28;19920;-81
2023/04/12 14:36:32;;;;;;;;;;;;;;;11.75;36.70;101058.91;10501914;28;19962;-78
2023/04/12 14:41:39;;;;;;;;;;;;;;;11.69;37.49;101062.78;10449114;28;19916;-80
2023/04/12 14:46:41;;;;;;;;;;;;;;;11.65;37.23;101064.44;10458932;28;19963;-79
2023/04/12 14:51:45;;;;;;;;;;;;;;;11.56;37.31;101074.34;10467723;28;19916;-81
2023/04/12 14:56:47;;;;;;;;;;;;;;;11.58;38.31;101072.13;10477685;28;19959;-83
2023/04/12 15:01:51;;;;;;;;;;;;;;;11.57;38.24;101067.72;10455917;28;19931;-80
2023/04/12 15:06:54;;;;;;;;;;;;;;;11.45;39.10;101064.44;10457892;28;19921;-79
2023/04/12 15:12:00;;;;;;;;;;;;;;;11.36;39.18;101075.19;10471132;28;19921;-79
2023/04/12 15:17:02;;;;;;;;;;;;;;;11.20;39.54;101078.22;10433992;28;19943;-80
2023/04/12 15:22:05;;;;;;;;;;;;;;;11.07;39.40;101082.31;10491707;28;19921;-78
2023/04/12 15:27:07;;;;;;;;;;;;;;;10.88;39.88;101087.50;10495592;28;20037;-77
2023/04/12 15:32:09;;;;;;;;;;;;;;;10.78;40.01;101087.50;10466800;28;19928;-77
2023/04/12 15:37:13;;;;;;;;;;;;;;;10.68;38.73;101082.00;10474205;28;19921;-78
2023/04/12 15:42:15;;;;;;;;;;;;;;;10.63;38.67;101080.06;10454445;28;19921;-79
2023/04/12 15:47:17;;;;;;;;;;;;;;;10.56;38.82;101084.97;10465252;28;20458;-81
2023/04/12 15:52:20;;;;;;;;;;;;;;;10.49;38.44;101082.50;10487115;28;19923;-80
2023/04/12 15:57:22;;;;;;;;;;;;;;;10.47;37.68;101081.94;10485059;28;19921;-78
2023/04/12 16:02:29;;;;;;;;;;;;;;;10.40;37.79;101089.56;10500794;28;20115;-79
2023/04/12 16:07:32;;;;;;;;;;;;;;;10.34;37.65;101090.66;10476449;28;19931;-79
2023/04/12 16:12:34;;;;;;;;;;;;;;;10.28;36.44;101089.00;10454958;28;19923;-79
2023/04/12 16:17:36;;;;;;;;;;;;;;;10.09;36.12;101079.56;10451077;28;19924;-80
2023/04/12 16:22:39;;;;;;;;;;;;;;;9.96;36.45;101087.16;10491252;28;19922;-79
2023/04/12 16:27:41;;;;;;;;;;;;;;;10.01;36.85;101091.84;10461457;28;20383;-80
2023/04/12 16:32:45;;;;;;;;;;;;;;;10.07;36.73;101095.47;10470996;28;19920;-80
2023/04/12 16:37:48;;;;;;;;;;;;;;;10.04;35.72;101095.97;10462879;28;20022;-79
2023/04/12 16:42:50;;;;;;;;;;;;;;;9.99;37.10;101096.78;10472739;28;20345;-81
2023/04/12 16:47:53;;;;;;;;;;;;;;;9.92;36.38;101112.66;10485324;28;19920;-79
2023/04/12 16:52:56;;;;;;;;;;;;;;;9.61;37.19;101112.44;10468946;28;19925;-79
2023/04/12 16:57:58;;;;;;;;;;;;;;;9.43;37.50;101114.78;10469196;28;20194;-80
2023/04/12 17:03:00;;;;;;;;;;;;;;;9.26;37.36;101115.72;10481655;28;20032;-80
2023/04/12 17:08:04;;;;;;;;;;;;;;;9.21;37.06;101114.88;10469113;28;19920;-81
2023/04/12 17:13:07;;;;;;;;;;;;;;;9.20;36.74;101118.66;10483935;28;20415;-81
2023/04/12 17:18:09;;;;;;;;;;;;;;;9.13;36.82;101113.41;10469591;28;19920;-81
2023/04/12 17:23:12;;;;;;;;;;;;;;;9.33;37.90;101115.50;10489417;28;19925;-80
2023/04/12 17:28:14;;;;;;;;;;;;;;;9.43;38.03;101114.78;10488366;28;20372;-80
2023/04/12 17:33:17;;;;;;;;;;;;;;;9.41;37.34;101127.91;10464499;28;19928;-79
2023/04/12 17:38:19;;;;;;;;;;;;;;;9.30;37.31;101127.81;10486608;28;19920;-81
2023/04/12 17:43:21;;;;;;;;;;;;;;;9.01;37.80;101129.16;10510600;28;19932;-79
2023/04/12 17:48:23;;;;;;;;;;;;;;;8.93;38.16;101135.94;10512966;28;19943;-82
2023/04/12 17:53:25;;;;;;;;;;;;;;;8.92;36.36;101141.69;10521150;28;20046;-81
2023/04/12 17:58:28;;;;;;;;;;;;;;;8.67;36.92;101144.94;10535640;28;19920;-79
2023/04/12 18:03:31;;;;;;;;;;;;;;;8.51;36.86;101146.69;10534888;28;19920;-81
2023/04/12 18:08:33;;;;;;;;;;;;;;;8.39;36.73;101143.25;10498897;28;19927;-80
2023/04/12 18:13:35;;;;;;;;;;;;;;;8.38;37.54;101149.81;10547364;28;19916;-80
2023/04/12 18:18:37;;;;;;;;;;;;;;;8.22;37.65;101158.84;10527081;28;20527;-80
2023/04/12 18:23:39;;;;;;;;;;;;;;;8.19;37.73;101152.00;10512971;28;19920;-80
2023/04/12 18:28:41;;;;;;;;;;;;;;;8.11;37.85;101174.28;10489059;28;19964;-79
2023/04/12 18:33:44;;;;;;;;;;;;;;;7.86;37.43;101156.44;10526372;28;19920;-79
2023/04/12 18:38:46;;;;;;;;;;;;;;;7.89;37.37;101159.75;10511988;28;19930;-79
2023/04/12 18:43:48;;;;;;;;;;;;;;;7.83;38.16;101167.06;10524734;28;19917;-79
2023/04/12 18:48:55;;;;;;;;;;;;;;;7.62;37.96;101167.78;10514909;28;19975;-81
2023/04/12 18:53:57;;;;;;;;;;;;;;;7.47;38.88;101169.22;10500300;28;19927;-82
2023/04/12 18:59:00;;;;;;;;;;;;;;;7.50;38.38;101173.34;10505115;28;20375;-78
2023/04/12 19:04:04;;;;;;;;;;;;;;;7.39;38.44;101174.25;10504639;28;19920;-81
2023/04/12 19:09:07;;;;;;;;;;;;;;;7.41;38.55;101174.81;10537114;28;19916;-82
2023/04/12 19:14:09;;;;;;;;;;;;;;;7.44;38.56;101179.78;10498928;28;19920;-80
2023/04/12 19:19:11;;;;;;;;;;;;;;;7.38;38.04;101184.34;10538039;28;20315;-80
2023/04/12 19:24:13;;;;;;;;;;;;;;;7.36;38.24;101182.94;10512318;28;19921;-81
2023/04/12 19:29:15;;;;;;;;;;;;;;;7.16;38.36;101188.88;10516917;28;20008;-79
2023/04/12 19:34:17;;;;;;;;;;;;;;;6.91;38.97;101187.28;10532643;28;19916;-81
2023/04/12 19:39:21;;;;;;;;;;;;;;;6.97;39.68;101184.69;10538135;28;19920;-81
2023/04/12 19:44:24;;;;;;;;;;;;;;;7.07;39.27;101190.31;10530882;28;19920;-82
2023/04/12 19:49:26;;;;;;;;;;;;;;;7.15;39.34;101182.56;10528343;28;20009;-81
2023/04/12 19:54:28;;;;;;;;;;;;;;;7.29;39.11;101185.84;10553971;28;19921;-79
2023/04/12 19:59:35;;;;;;;;;;;;;;;7.28;39.27;101199.69;10547986;28;19956;-83
2023/04/12 20:04:38;;;;;;;;;;;;;;;7.01;39.50;101208.50;10534084;28;19924;-81
2023/04/12 20:09:41;;;;;;;;;;;;;;;6.70;40.84;101207.06;10550263;28;19920;-81
2023/04/12 20:14:43;;;;;;;;;;;;;;;6.51;40.81;101220.03;10520096;28;19920;-82
2023/04/12 20:19:45;;;;;;;;;;;;;;;6.93;40.70;101233.44;10487211;28;19921;-82
2023/04/12 20:24:48;;;;;;;;;;;;;;;6.81;41.48;101228.03;10517618;28;19927;-81
2023/04/12 20:29:50;;;;;;;;;;;;;;;6.63;42.44;101222.75;10517313;28;19920;-82
2023/04/12 20:34:53;;;;;;;;;;;;;;;6.51;42.60;101230.09;10530967;28;19927;-81
2023/04/12 20:39:55;;;;;;;;;;;;;;;6.49;43.21;101235.81;10524018;28;19927;-82
2023/04/12 20:44:57;;;;;;;;;;;;;;;6.37;43.26;101234.16;10560096;28;19920;-81
2023/04/12 20:49:59;;;;;;;;;;;;;;;6.54;43.88;101240.53;10539862;28;20018;-82
2023/04/12 20:55:01;;;;;;;;;;;;;;;6.58;44.14;101249.88;10520699;28;19916;-81
2023/04/12 21:00:11;;;;;;;;;;;;;;;6.52;44.51;101254.41;10554911;28;20361;-82
2023/04/12 21:05:16;;;;;;;;;;;;;;;6.57;44.15;101245.50;10520931;28;20264;-83
2023/04/12 21:10:18;;;;;;;;;;;;;;;6.83;43.97;101244.97;10507304;28;19927;-80
2023/04/12 21:15:20;;;;;;;;;;;;;;;6.82;44.21;101256.97;10523340;28;19916;-79
2023/04/12 21:20:23;;;;;;;;;;;;;;;6.83;44.09;101266.81;10531186;28;19930;-80
2023/04/12 21:25:25;;;;;;;;;;;;;;;6.67;45.14;101273.00;10523131;28;19920;-82
2023/04/12 21:30:27;;;;;;;;;;;;;;;6.60;45.47;101270.41;10530510;28;20311;-81
2023/04/12 21:35:29;;;;;;;;;;;;;;;6.61;45.54;101274.78;10531511;28;19966;-81
2023/04/12 21:40:31;;;;;;;;;;;;;;;6.64;45.83;101284.41;10500087;28;20406;-81
2023/04/12 21:45:33;;;;;;;;;;;;;;;6.75;45.76;101280.78;10538036;28;19924;-81
2023/04/12 21:50:36;;;;;;;;;;;;;;;6.53;46.20;101296.13;10493404;28;20299;-81
2023/04/12 21:55:38;;;;;;;;;;;;;;;6.46;46.24;101314.53;10528839;28;19927;-81
2023/04/12 22:00:41;;;;;;;;;;;;;;;6.39;46.43;101308.34;10503508;28;19978;-81
2023/04/12 22:05:43;;;;;;;;;;;;;;;6.37;46.79;101296.84;10564401;28;19924;-81
2023/04/12 22:10:46;;;;;;;;;;;;;;;6.48;46.85;101313.22;10527610;28;19927;-81
2023/04/12 22:15:48;;;;;;;;;;;;;;;6.52;46.57;101327.19;10484462;28;20356;-80
2023/04/12 22:20:51;;;;;;;;;;;;;;;6.53;46.48;101332.41;10496231;28;19927;-80
2023/04/12 22:25:57;;;;;;;;;;;;;;;6.48;46.87;101332.28;10530903;28;19920;-80
2023/04/12 22:30:59;;;;;;;;;;;;;;;6.44;47.48;101352.94;10531865;28;19920;-81
2023/04/12 22:36:01;;;;;;;;;;;;;;;6.33;47.48;101327.31;10506752;28;19928;-80
2023/04/12 22:41:04;;;;;;;;;;;;;;;6.34;47.41;101339.03;10489372;28;19921;-81
2023/04/12 22:46:14;;;;;;;;;;;;;;;6.44;47.57;101346.66;10507750;28;19920;-79
2023/04/12 22:51:16;;;;;;;;;;;;;;;6.20;47.89;101348.50;10534819;28;19920;-82
2023/04/12 22:56:18;;;;;;;;;;;;;;;5.92;48.13;101347.28;10513644;28;19919;-80
2023/04/12 23:01:20;;;;;;;;;;;;;;;6.09;48.29;101342.00;10526665;28;20402;-81
2023/04/12 23:06:23;;;;;;;;;;;;;;;6.22;48.16;101355.38;10536355;28;19931;-80
2023/04/12 23:11:29;;;;;;;;;;;;;;;5.94;48.74;101334.25;10504489;28;19995;-80
2023/04/12 23:16:32;;;;;;;;;;;;;;;6.02;48.87;101335.78;10527637;28;19920;-81
2023/04/12 23:21:35;;;;;;;;;;;;;;;5.73;49.70;101351.09;10522531;28;19927;-81
2023/04/12 23:26:37;;;;;;;;;;;;;;;5.60;50.11;101354.00;10528071;28;19920;-81
2023/04/12 23:31:39;;;;;;;;;;;;;;;5.36;51.11;101381.09;10517924;28;19951;-81
2023/04/12 23:36:41;;;;;;;;;;;;;;;5.19;51.13;101343.84;10547777;28;19920;-82
2023/04/12 23:41:44;;;;;;;;;;;;;;;5.08;52.14;101350.91;10532605;28;19946;-80
2023/04/12 23:46:52;;;;;;;;;;;;;;;5.08;51.82;101369.94;10527799;28;19925;-80
2023/04/12 23:51:54;;;;;;;;;;;;;;;4.88;52.80;101363.91;10524377;28;19927;-79
2023/04/12 23:57:00;;;;;;;;;;;;;;;4.63;53.89;101364.75;10553377;28;20297;-79
